sensor_id;sensor_type;location;lat;lon;timestamp;P1;durP1;ratioP1;P2;durP2;ratioP2
84788;SDS011;75022;50.788;20.620;2024-03-06T00:00:05;37.120000000000005;;;29.16;;
84788;SDS011;75022;50.788;20.620;2024-03-06T00:10:10;36.93;;;28.85;;
84788;SDS011;75022;50.788;20.620;2024-03-06T00:20:02;36.980000000000004;;;28.95;;
84788;SDS011;75022;50.788;20.620;2024-03-06T00:30:02;37.12;;;28.93;;
84788;SDS011;75022;50.788;20.620;2024-03-06T00:40:02;36.52;;;28.689999999999998;;
84788;SDS011;75022;50.788;20.620;2024-03-06T00:50:08;36.230000000000004;;;28.310000000000002;;
84788;SDS011;75022;50.788;20.620;2024-03-06T01:00:07;36.15;;;28.14;;
84788;SDS011;75022;50.788;20.620;2024-03-06T01:10:13;36.23;;;28.119999999999997;;
84788;SDS011;75022;50.788;20.620;2024-03-06T01:20:02;35.49;;;27.73;;
84788;SDS011;75022;50.788;20.620;2024-03-06T01:30:12;35.02;;;27.54;;
84788;SDS011;75022;50.788;20.620;2024-03-06T01:40:02;34.440000000000005;;;26.96;;
84788;SDS011;75022;50.788;20.620;2024-03-06T01:50:11;33.78;;;26.7;;
84788;SDS011;75022;50.788;20.620;2024-03-06T02:00:02;33.36000000000001;;;26.36;;
84788;SDS011;75022;50.788;20.620;2024-03-06T02:10:02;33.13;;;26.14;;
84788;SDS011;75022;50.788;20.620;2024-03-06T02:20:13;33.120000000000005;;;26.02;;
84788;SDS011;75022;50.788;20.620;2024-03-06T02:30:12;33.23;;;26.03;;
84788;SDS011;75022;50.788;20.620;2024-03-06T02:40:10;32.83;;;26.11;;
84788;SDS011;75022;50.788;20.620;2024-03-06T02:50:12;33.03;;;25.98;;
84788;SDS011;75022;50.788;20.620;2024-03-06T03:00:03;32.85;;;26.07;;
84788;SDS011;75022;50.788;20.620;2024-03-06T03:10:09;32.91;;;25.93;;
84788;SDS011;75022;50.788;20.620;2024-03-06T03:20:20;32.849999999999994;;;26.04;;
84788;SDS011;75022;50.788;20.620;2024-03-06T03:30:07;32.79;;;25.9;;
84788;SDS011;75022;50.788;20.620;2024-03-06T03:40:15;32.74;;;25.74;;
84788;SDS011;75022;50.788;20.620;2024-03-06T03:50:11;32.55;;;25.71;;
84788;SDS011;75022;50.788;20.620;2024-03-06T04:00:12;32.410000000000004;;;25.779999999999998;;
84788;SDS011;75022;50.788;20.620;2024-03-06T04:10:17;32.46;;;25.64;;
84788;SDS011;75022;50.788;20.620;2024-03-06T04:20:16;32.4;;;25.740000000000002;;
84788;SDS011;75022;50.788;20.620;2024-03-06T04:30:16;32.41;;;25.54;;
84788;SDS011;75022;50.788;20.620;2024-03-06T04:40:03;32.11000000000001;;;25.54;;
84788;SDS011;75022;50.788;20.620;2024-03-06T04:50:16;31.73;;;25.169999999999998;;
84788;SDS011;75022;50.788;20.620;2024-03-06T05:00:06;31.54;;;24.88;;
84788;SDS011;75022;50.788;20.620;2024-03-06T05:10:10;31.229999999999997;;;24.7;;
84788;SDS011;75022;50.788;20.620;2024-03-06T05:20:13;30.72;;;24.45;;
84788;SDS011;75022;50.788;20.620;2024-03-06T05:30:11;30.39;;;24.200000000000003;;
84788;SDS011;75022;50.788;20.620;2024-03-06T05:40:10;30.150000000000002;;;24.16;;
84788;SDS011;75022;50.788;20.620;2024-03-06T05:50:08;29.299999999999997;;;23.7;;
84788;SDS011;75022;50.788;20.620;2024-03-06T06:00:02;28.55;;;23.15;;
84788;SDS011;75022;50.788;20.620;2024-03-06T06:10:11;27.63;;;22.62;;
84788;SDS011;75022;50.788;20.620;2024-03-06T06:20:21;26.7;;;22.07;;
84788;SDS011;75022;50.788;20.620;2024-03-06T06:30:14;25.77;;;21.57;;
84788;SDS011;75022;50.788;20.620;2024-03-06T06:40:20;25.16;;;21.279999999999998;;
84788;SDS011;75022;50.788;20.620;2024-03-06T06:50:17;25.12;;;21.18;;
84788;SDS011;75022;50.788;20.620;2024-03-06T07:00:26;25.33;;;21.290000000000003;;
84788;SDS011;75022;50.788;20.620;2024-03-06T07:10:04;25.52;;;21.4;;
84788;SDS011;75022;50.788;20.620;2024-03-06T07:20:14;26.15;;;21.810000000000002;;
84788;SDS011;75022;50.788;20.620;2024-03-06T07:30:17;26.59;;;21.95;;
84788;SDS011;75022;50.788;20.620;2024-03-06T07:40:02;26.7;;;21.830000000000002;;
84788;SDS011;75022;50.788;20.620;2024-03-06T07:50:20;26.709999999999997;;;21.82;;
84788;SDS011;75022;50.788;20.620;2024-03-06T08:00:20;26.310000000000002;;;21.8;;
84788;SDS011;75022;50.788;20.620;2024-03-06T08:10:14;25.41;;;21.32;;
84788;SDS011;75022;50.788;20.620;2024-03-06T08:20:15;24.61;;;20.83;;
84788;SDS011;75022;50.788;20.620;2024-03-06T08:30:03;23.8;;;20.49;;
84788;SDS011;75022;50.788;20.620;2024-03-06T08:40:06;23.150000000000002;;;20.09;;
84788;SDS011;75022;50.788;20.620;2024-03-06T08:50:13;22.98;;;20.1;;
84788;SDS011;75022;50.788;20.620;2024-03-06T09:00:21;23.02;;;19.91;;
84788;SDS011;75022;50.788;20.620;2024-03-06T09:10:02;23.41;;;20.23;;
84788;SDS011;75022;50.788;20.620;2024-03-06T09:20:18;24.2;;;20.7;;
84788;SDS011;75022;50.788;20.620;2024-03-06T09:30:18;25.18;;;21.26;;
84788;SDS011;75022;50.788;20.620;2024-03-06T09:40:02;26.12;;;21.799999999999997;;
84788;SDS011;75022;50.788;20.620;2024-03-06T09:50:02;26.759999999999998;;;22.099999999999998;;
84788;SDS011;75022;50.788;20.620;2024-03-06T10:00:03;26.83;;;22.3;;
84788;SDS011;75022;50.788;20.620;2024-03-06T10:10:16;27.04;;;22.330000000000002;;
84788;SDS011;75022;50.788;20.620;2024-03-06T10:20:37;26.89;;;22.42;;
84788;SDS011;75022;50.788;20.620;2024-03-06T10:30:12;26.34;;;22.17;;
84788;SDS011;75022;50.788;20.620;2024-03-06T10:40:03;25.25;;;21.52;;
84788;SDS011;75022;50.788;20.620;2024-03-06T10:50:12;24.279999999999998;;;20.84;;
84788;SDS011;75022;50.788;20.620;2024-03-06T11:00:16;23.790000000000003;;;20.72;;
84788;SDS011;75022;50.788;20.620;2024-03-06T11:10:36;23.01;;;20.22;;
84788;SDS011;75022;50.788;20.620;2024-03-06T11:20:36;22.29;;;19.75;;
84788;SDS011;75022;50.788;20.620;2024-03-06T11:30:22;22.17;;;19.520000000000003;;
84788;SDS011;75022;50.788;20.620;2024-03-06T11:40:02;22.3;;;19.77;;
84788;SDS011;75022;50.788;20.620;2024-03-06T11:50:02;22.560000000000002;;;19.94;;
84788;SDS011;75022;50.788;20.620;2024-03-06T12:00:15;22.67;;;19.95;;
84788;SDS011;75022;50.788;20.620;2024-03-06T12:10:09;22.87;;;20.17;;
84788;SDS011;75022;50.788;20.620;2024-03-06T12:20:19;22.55;;;20.01;;
84788;SDS011;75022;50.788;20.620;2024-03-06T12:30:11;22.51;;;19.99;;
84788;SDS011;75022;50.788;20.620;2024-03-06T12:40:15;22.169999999999998;;;19.86;;
84788;SDS011;75022;50.788;20.620;2024-03-06T12:50:11;22.45;;;19.909999999999997;;
84788;SDS011;75022;50.788;20.620;2024-03-06T13:00:19;22.959999999999997;;;20.310000000000002;;
84788;SDS011;75022;50.788;20.620;2024-03-06T13:10:14;23.53;;;20.43;;
84788;SDS011;75022;50.788;20.620;2024-03-06T13:20:02;24.3;;;20.96;;
84788;SDS011;75022;50.788;20.620;2024-03-06T13:30:13;25.5;;;21.71;;
84788;SDS011;75022;50.788;20.620;2024-03-06T13:40:08;26.81;;;22.31;;
84788;SDS011;75022;50.788;20.620;2024-03-06T13:50:19;27.94;;;22.93;;
84788;SDS011;75022;50.788;20.620;2024-03-06T14:00:03;28.76;;;23.52;;
84788;SDS011;75022;50.788;20.620;2024-03-06T14:10:14;29.13;;;23.82;;
84788;SDS011;75022;50.788;20.620;2024-03-06T14:20:04;29.09;;;23.81;;
84788;SDS011;75022;50.788;20.620;2024-03-06T14:30:02;28.57;;;23.5;;
84788;SDS011;75022;50.788;20.620;2024-03-06T14:40:02;27.029999999999998;;;22.43;;
84788;SDS011;75022;50.788;20.620;2024-03-06T14:50:10;24.57;;;20.71;;
84788;SDS011;75022;50.788;20.620;2024-03-06T15:00:23;22.57;;;19.17;;
84788;SDS011;75022;50.788;20.620;2024-03-06T15:10:12;20.14;;;17.77;;
84788;SDS011;75022;50.788;20.620;2024-03-06T15:20:05;17.68;;;15.959999999999999;;
84788;SDS011;75022;50.788;20.620;2024-03-06T15:30:02;15.55;;;14.31;;
84788;SDS011;75022;50.788;20.620;2024-03-06T15:40:07;14.719999999999999;;;13.68;;
84788;SDS011;75022;50.788;20.620;2024-03-06T15:50:02;13.82;;;12.92;;
84788;SDS011;75022;50.788;20.620;2024-03-06T16:00:20;13.0;;;12.26;;
84788;SDS011;75022;50.788;20.620;2024-03-06T16:10:09;12.389999999999999;;;11.61;;
84788;SDS011;75022;50.788;20.620;2024-03-06T16:20:16;12.299999999999999;;;11.44;;
84788;SDS011;75022;50.788;20.620;2024-03-06T16:30:10;12.149999999999999;;;11.32;;
84788;SDS011;75022;50.788;20.620;2024-03-06T16:40:12;12.229999999999999;;;11.43;;
84788;SDS011;75022;50.788;20.620;2024-03-06T16:50:12;12.430000000000001;;;11.6;;
84788;SDS011;75022;50.788;20.620;2024-03-06T17:00:18;13.290000000000001;;;12.39;;
84788;SDS011;75022;50.788;20.620;2024-03-06T17:10:11;14.2;;;13.15;;
84788;SDS011;75022;50.788;20.620;2024-03-06T17:20:10;15.41;;;14.29;;
84788;SDS011;75022;50.788;20.620;2024-03-06T17:30:09;16.75;;;15.46;;
84788;SDS011;75022;50.788;20.620;2024-03-06T17:40:06;18.080000000000002;;;16.58;;
84788;SDS011;75022;50.788;20.620;2024-03-06T17:50:15;19.77;;;17.99;;
84788;SDS011;75022;50.788;20.620;2024-03-06T18:00:18;21.28;;;18.98;;
84788;SDS011;75022;50.788;20.620;2024-03-06T18:10:03;22.62;;;20.09;;
84788;SDS011;75022;50.788;20.620;2024-03-06T18:20:12;23.8;;;20.65;;
84788;SDS011;75022;50.788;20.620;2024-03-06T18:30:11;25.45;;;21.67;;
84788;SDS011;75022;50.788;20.620;2024-03-06T18:40:06;27.150000000000002;;;22.63;;
84788;SDS011;75022;50.788;20.620;2024-03-06T19:00:03;29.439999999999998;;;23.89;;
84788;SDS011;75022;50.788;20.620;2024-03-06T19:10:06;30.56;;;24.71;;
84788;SDS011;75022;50.788;20.620;2024-03-06T19:20:07;31.52;;;25.34;;
84788;SDS011;75022;50.788;20.620;2024-03-06T19:30:12;31.99;;;25.54;;
84788;SDS011;75022;50.788;20.620;2024-03-06T20:00:12;32.21;;;25.99;;
84788;SDS011;75022;50.788;20.620;2024-03-06T20:10:04;32.23;;;26.16;;
84788;SDS011;75022;50.788;20.620;2024-03-06T20:30:16;32.349999999999994;;;25.9;;
84788;SDS011;75022;50.788;20.620;2024-03-06T20:40:10;33.57;;;27.15;;
84788;SDS011;75022;50.788;20.620;2024-03-06T20:50:02;36.83;;;30.03;;
84788;SDS011;75022;50.788;20.620;2024-03-06T21:00:19;39.2;;;32.5;;
84788;SDS011;75022;50.788;20.620;2024-03-06T21:10:04;42.02;;;34.900000000000006;;
84788;SDS011;75022;50.788;20.620;2024-03-06T21:20:20;46.21;;;38.550000000000004;;
84788;SDS011;75022;50.788;20.620;2024-03-06T21:30:15;48.17;;;40.36;;
84788;SDS011;75022;50.788;20.620;2024-03-06T21:50:03;48.65;;;40.57;;
84788;SDS011;75022;50.788;20.620;2024-03-06T22:10:16;48.62;;;40.76;;
84788;SDS011;75022;50.788;20.620;2024-03-06T22:20:10;46.23;;;39.010000000000005;;
84788;SDS011;75022;50.788;20.620;2024-03-06T22:30:09;46.19;;;38.79;;
84788;SDS011;75022;50.788;20.620;2024-03-06T22:40:04;43.34;;;36.49;;
84788;SDS011;75022;50.788;20.620;2024-03-06T22:50:10;41.05;;;34.07;;
84788;SDS011;75022;50.788;20.620;2024-03-06T23:00:20;37.43;;;31.14;;
84788;SDS011;75022;50.788;20.620;2024-03-06T23:10:13;33.95;;;28.27;;
84788;SDS011;75022;50.788;20.620;2024-03-06T23:20:11;31.8;;;26.02;;
84788;SDS011;75022;50.788;20.620;2024-03-06T23:30:20;29.11;;;23.919999999999998;;
84788;SDS011;75022;50.788;20.620;2024-03-06T23:40:16;27.73;;;23.2;;
84788;SDS011;75022;50.788;20.620;2024-03-06T23:50:08;26.97;;;22.73;;
